Aviation Digital Data Service (ADDS)

Output produced by METARs form (0702 UTC 26 September 2016)
found at http://aviationweather.gov/adds/metars/
 
KPVD 260540Z 2606/2706 35005KT P6SM SKC 
     FM261400 08004KT P6SM SKC 
     FM261700 16006KT P6SM SKC 
     FM270300 20007KT P6SM FEW090